createdAt,value
2018-12-31T00:02:10.827Z,91.04
2018-12-31T00:04:39.262Z,90.82
2018-12-31T00:07:08.001Z,90.86
2018-12-31T00:09:36.433Z,90.90
2018-12-31T00:12:04.896Z,91.01
2018-12-31T00:14:33.361Z,91.34
2018-12-31T00:17:01.823Z,90.98
2018-12-31T00:19:30.286Z,90.73
2018-12-31T00:21:58.752Z,90.92
2018-12-31T00:24:27.233Z,91.28
2018-12-31T00:26:55.693Z,91.21
2018-12-31T00:29:24.148Z,91.23
2018-12-31T00:31:52.599Z,91.71
2018-12-31T00:34:21.040Z,91.62
2018-12-31T00:36:49.499Z,91.56
2018-12-31T00:39:17.957Z,91.67
2018-12-31T00:41:46.417Z,91.47
2018-12-31T00:44:14.855Z,91.43
2018-12-31T00:46:43.333Z,91.47
2018-12-31T00:49:11.768Z,91.19
2018-12-31T00:51:40.223Z,91.59
2018-12-31T00:54:08.667Z,91.77
2018-12-31T00:56:37.133Z,91.68
2018-12-31T00:59:05.575Z,91.34
2018-12-31T01:01:34.043Z,91.68
2018-12-31T01:04:02.517Z,91.29
2018-12-31T01:06:30.971Z,91.36
2018-12-31T01:08:59.411Z,91.19
2018-12-31T01:11:27.873Z,91.35
2018-12-31T01:13:56.328Z,91.48
2018-12-31T01:16:24.807Z,91.79
2018-12-31T01:18:53.259Z,92.15
2018-12-31T01:21:21.750Z,92.06
2018-12-31T01:23:50.204Z,91.80
2018-12-31T01:26:18.654Z,92.12
2018-12-31T01:28:47.108Z,92.00
2018-12-31T01:31:15.575Z,92.11
2018-12-31T01:33:44.107Z,92.17
2018-12-31T01:36:12.547Z,92.56
2018-12-31T01:38:41.025Z,92.17
2018-12-31T01:41:09.461Z,91.88
2018-12-31T01:43:37.945Z,91.66
2018-12-31T01:46:06.378Z,91.79
2018-12-31T01:48:34.821Z,91.88
2018-12-31T01:51:10.959Z,92.13
2018-12-31T01:53:33.458Z,92.20
2018-12-31T01:56:01.907Z,91.92
2018-12-31T01:58:30.380Z,92.39
2018-12-31T02:00:58.827Z,92.31
2018-12-31T02:03:27.302Z,92.15
2018-12-31T02:05:55.829Z,92.40
2018-12-31T02:08:24.372Z,92.67
2018-12-31T02:10:52.833Z,92.58
2018-12-31T02:13:21.312Z,92.72
2018-12-31T02:15:49.774Z,92.41
2018-12-31T02:18:18.293Z,92.42
2018-12-31T02:20:46.741Z,92.23
2018-12-31T02:23:15.205Z,92.61
2018-12-31T02:25:43.724Z,92.36
2018-12-31T02:28:12.200Z,92.06
2018-12-31T02:30:40.650Z,91.77
2018-12-31T02:33:09.128Z,91.93
2018-12-31T02:35:37.573Z,92.17
2018-12-31T02:38:06.022Z,92.24
2018-12-31T02:40:34.482Z,91.95
2018-12-31T02:43:02.934Z,92.31
2018-12-31T02:45:31.415Z,92.34
2018-12-31T02:47:59.826Z,92.60
2018-12-31T02:50:28.285Z,92.09
2018-12-31T02:52:56.744Z,92.08
2018-12-31T02:55:25.205Z,92.04
2018-12-31T02:57:53.663Z,92.28
2018-12-31T03:00:22.187Z,92.15
2018-12-31T03:02:50.727Z,92.23
2018-12-31T03:05:19.217Z,91.54
2018-12-31T03:07:47.664Z,91.44
2018-12-31T03:10:16.127Z,91.29
2018-12-31T03:12:44.676Z,91.25
2018-12-31T03:15:13.127Z,91.32
2018-12-31T03:17:41.581Z,91.30
2018-12-31T03:20:10.035Z,91.45
2018-12-31T03:22:38.494Z,91.67
2018-12-31T03:25:07.026Z,91.72
2018-12-31T03:27:35.468Z,91.91
2018-12-31T03:30:04.531Z,92.74
2018-12-31T03:32:33.011Z,92.69
2018-12-31T03:35:01.523Z,93.31
2018-12-31T03:37:29.964Z,93.24
2018-12-31T03:39:58.421Z,93.12
2018-12-31T03:42:26.851Z,93.41
2018-12-31T03:44:55.319Z,93.67
2018-12-31T03:47:23.766Z,93.38
2018-12-31T03:49:52.206Z,93.57
2018-12-31T03:52:20.683Z,93.44
2018-12-31T03:54:49.143Z,92.52
2018-12-31T03:57:17.588Z,91.98
2018-12-31T03:59:46.037Z,91.93
2018-12-31T04:02:14.512Z,92.17
2018-12-31T04:04:42.963Z,92.25
2018-12-31T04:07:11.421Z,92.21
2018-12-31T04:09:39.889Z,92.15
2018-12-31T04:12:08.366Z,92.34
2018-12-31T04:14:36.828Z,92.19
2018-12-31T04:17:05.288Z,92.34
2018-12-31T04:19:33.738Z,92.32
2018-12-31T04:22:02.187Z,92.50
2018-12-31T04:24:30.621Z,92.51
2018-12-31T04:26:59.162Z,92.72
2018-12-31T04:29:27.599Z,92.86
2018-12-31T04:31:56.084Z,92.58
2018-12-31T04:34:26.044Z,92.41
2018-12-31T04:36:54.506Z,92.34
2018-12-31T04:39:22.945Z,92.38
2018-12-31T04:41:51.430Z,92.28
2018-12-31T04:44:19.866Z,92.50
2018-12-31T04:46:48.311Z,92.60
2018-12-31T04:49:16.774Z,92.82
2018-12-31T04:51:45.229Z,93.12
2018-12-31T04:54:13.673Z,92.81
2018-12-31T04:56:42.147Z,92.96
2018-12-31T04:59:10.582Z,92.89
2018-12-31T05:01:39.049Z,92.95
2018-12-31T05:04:07.491Z,93.08
2018-12-31T05:06:35.952Z,92.92
2018-12-31T05:09:06.359Z,93.15
2018-12-31T05:11:34.829Z,92.83
2018-12-31T05:14:03.278Z,92.79
2018-12-31T05:16:31.725Z,93.02
2018-12-31T05:19:00.170Z,93.31
2018-12-31T05:21:28.644Z,93.60
2018-12-31T05:23:57.113Z,93.81
2018-12-31T05:26:25.539Z,93.67
2018-12-31T05:28:54.028Z,93.62
2018-12-31T05:31:22.467Z,93.68
2018-12-31T05:33:50.935Z,93.61
2018-12-31T05:36:19.384Z,93.44
2018-12-31T05:38:47.852Z,94.19
2018-12-31T05:41:17.756Z,94.39
2018-12-31T05:43:46.431Z,94.46
2018-12-31T05:46:14.894Z,94.37
2018-12-31T05:48:43.360Z,94.33
2018-12-31T05:51:11.802Z,94.34
2018-12-31T05:53:40.260Z,94.02
2018-12-31T05:56:08.703Z,94.31
2018-12-31T05:58:37.186Z,93.90
2018-12-31T06:01:05.637Z,93.43
2018-12-31T06:03:34.100Z,93.59
2018-12-31T06:06:02.542Z,93.51
2018-12-31T06:08:31.010Z,93.63
2018-12-31T06:10:59.462Z,93.79
2018-12-31T06:13:27.934Z,94.09
2018-12-31T06:15:56.384Z,93.91
2018-12-31T06:18:24.854Z,94.18
2018-12-31T06:20:53.301Z,94.06
2018-12-31T06:23:21.764Z,93.86
2018-12-31T06:25:50.223Z,93.85
2018-12-31T06:28:18.686Z,93.68
2018-12-31T06:30:47.128Z,93.73
2018-12-31T06:33:15.597Z,93.83
2018-12-31T06:35:44.026Z,93.67
2018-12-31T06:38:12.494Z,93.45
2018-12-31T06:40:40.929Z,93.60
2018-12-31T06:43:09.383Z,93.66
2018-12-31T06:45:37.845Z,93.70
2018-12-31T06:48:06.286Z,93.80
2018-12-31T06:50:34.748Z,93.63
2018-12-31T06:53:03.210Z,93.31
2018-12-31T06:55:31.686Z,93.91
2018-12-31T06:58:00.136Z,93.92
2018-12-31T07:00:28.601Z,94.25
2018-12-31T07:02:57.040Z,94.40
2018-12-31T07:05:25.578Z,94.64
2018-12-31T07:07:54.052Z,94.51
2018-12-31T07:10:22.492Z,94.36
2018-12-31T07:12:50.948Z,93.82
2018-12-31T07:15:19.492Z,93.91
2018-12-31T07:17:47.936Z,93.98
2018-12-31T07:20:16.392Z,94.27
2018-12-31T07:22:44.852Z,94.64
2018-12-31T07:25:13.304Z,94.37
2018-12-31T07:27:41.756Z,94.10
2018-12-31T07:30:10.780Z,93.71
2018-12-31T07:32:39.232Z,93.92
2018-12-31T07:35:07.772Z,93.72
2018-12-31T07:37:36.225Z,93.70
2018-12-31T07:40:05.922Z,93.74
2018-12-31T07:42:34.357Z,93.36
2018-12-31T07:45:02.882Z,93.34
2018-12-31T07:47:31.344Z,93.31
2018-12-31T07:49:59.803Z,93.30
2018-12-31T07:52:28.271Z,93.01
2018-12-31T07:54:56.695Z,93.08
2018-12-31T07:57:25.152Z,92.66
2018-12-31T07:59:53.582Z,92.60
2018-12-31T08:02:22.052Z,92.96
2018-12-31T08:04:50.478Z,92.93
2018-12-31T08:07:18.959Z,92.78
2018-12-31T08:09:47.418Z,92.58
2018-12-31T08:12:15.870Z,92.45
2018-12-31T08:14:44.297Z,92.81
2018-12-31T08:17:12.777Z,92.46
2018-12-31T08:19:41.217Z,92.17
2018-12-31T08:22:09.661Z,92.28
2018-12-31T08:24:38.665Z,91.53
2018-12-31T08:27:07.117Z,91.53
2018-12-31T08:29:35.550Z,91.33
2018-12-31T08:32:04.045Z,91.29
2018-12-31T08:34:32.479Z,91.60
2018-12-31T08:37:00.923Z,91.15
2018-12-31T08:39:29.651Z,91.55
2018-12-31T08:41:58.095Z,91.02
2018-12-31T08:44:26.535Z,91.19
2018-12-31T08:46:54.997Z,90.78
2018-12-31T08:49:23.429Z,90.33
2018-12-31T08:51:51.893Z,90.24
2018-12-31T08:54:20.335Z,90.16
2018-12-31T08:56:48.797Z,89.61
2018-12-31T08:59:17.247Z,89.98
2018-12-31T09:01:45.787Z,89.38
2018-12-31T09:04:14.234Z,88.44
2018-12-31T09:06:42.668Z,88.17
2018-12-31T09:09:11.119Z,88.57
2018-12-31T09:11:39.565Z,87.79
2018-12-31T09:14:08.022Z,87.71
2018-12-31T09:16:36.461Z,87.35
2018-12-31T09:19:04.948Z,87.04
2018-12-31T09:21:33.389Z,87.05
2018-12-31T09:24:01.864Z,87.06
2018-12-31T09:26:30.298Z,87.80
2018-12-31T09:28:58.762Z,87.79
2018-12-31T09:31:27.210Z,88.27
2018-12-31T09:33:55.764Z,87.73
2018-12-31T09:36:24.205Z,88.12
2018-12-31T09:38:53.435Z,87.50
2018-12-31T09:41:21.879Z,87.26
2018-12-31T09:43:50.341Z,87.11
2018-12-31T09:46:18.793Z,87.64
2018-12-31T09:48:47.255Z,87.57
2018-12-31T09:51:15.704Z,87.38
2018-12-31T09:53:44.202Z,88.07
2018-12-31T09:56:12.673Z,87.39
2018-12-31T09:58:41.118Z,87.81
2018-12-31T10:01:09.556Z,87.52
2018-12-31T10:03:38.012Z,86.94
2018-12-31T10:06:06.458Z,87.36
2018-12-31T10:08:34.925Z,87.09
2018-12-31T10:11:03.388Z,86.93
2018-12-31T10:13:31.852Z,86.35
2018-12-31T10:16:00.314Z,86.25
2018-12-31T10:18:28.799Z,85.95
2018-12-31T10:20:57.329Z,85.62
2018-12-31T10:23:25.805Z,85.40
2018-12-31T10:25:54.271Z,85.58
2018-12-31T10:28:22.703Z,85.48
2018-12-31T10:30:51.183Z,85.13
2018-12-31T10:33:19.625Z,85.12
2018-12-31T10:35:48.088Z,85.61
2018-12-31T10:38:16.512Z,84.32
2018-12-31T10:40:44.999Z,84.47
2018-12-31T10:43:13.441Z,84.07
2018-12-31T10:45:41.913Z,83.46
2018-12-31T10:48:10.359Z,83.03
2018-12-31T10:50:38.843Z,82.72
2018-12-31T10:53:07.309Z,83.12
2018-12-31T10:55:35.767Z,83.23
2018-12-31T10:58:04.206Z,83.63
2018-12-31T11:00:32.684Z,83.64
2018-12-31T11:03:01.148Z,84.12
2018-12-31T11:05:29.592Z,83.79
2018-12-31T11:07:58.024Z,83.17
2018-12-31T11:10:26.475Z,83.34
2018-12-31T11:12:54.951Z,83.67
2018-12-31T11:15:23.637Z,83.41
2018-12-31T11:17:52.082Z,83.00
2018-12-31T11:20:20.524Z,83.07
2018-12-31T11:22:49.038Z,83.20
2018-12-31T11:25:17.473Z,82.48
2018-12-31T11:27:45.933Z,82.13
2018-12-31T11:30:14.384Z,82.13
2018-12-31T11:32:42.854Z,82.00
2018-12-31T11:35:11.303Z,80.97
2018-12-31T11:37:39.763Z,81.35
2018-12-31T11:40:08.290Z,81.33
2018-12-31T11:42:36.757Z,81.19
2018-12-31T11:45:05.872Z,81.05
2018-12-31T11:47:34.323Z,80.32
2018-12-31T11:50:02.765Z,79.89
2018-12-31T11:52:31.241Z,79.60
2018-12-31T11:54:59.706Z,79.00
2018-12-31T11:57:28.181Z,79.70
2018-12-31T11:59:56.639Z,80.42
2018-12-31T12:02:25.128Z,80.63
2018-12-31T12:04:53.569Z,80.71
2018-12-31T12:07:22.028Z,80.84
2018-12-31T12:09:50.482Z,81.11
2018-12-31T12:12:19.229Z,81.28
2018-12-31T12:14:47.665Z,81.12
2018-12-31T12:17:16.219Z,80.60
2018-12-31T12:19:44.742Z,81.05
2018-12-31T12:22:13.196Z,81.41
2018-12-31T12:24:41.634Z,81.15
2018-12-31T12:27:10.098Z,80.75
2018-12-31T12:29:38.532Z,81.47
2018-12-31T12:32:07.016Z,81.05
2018-12-31T12:34:35.463Z,81.16
2018-12-31T12:37:03.937Z,80.84
2018-12-31T12:39:32.389Z,79.27
2018-12-31T12:42:00.825Z,79.27
2018-12-31T12:44:29.270Z,77.75
2018-12-31T12:46:57.728Z,77.75
2018-12-31T12:49:26.214Z,77.74
2018-12-31T12:51:54.654Z,78.46
2018-12-31T12:54:23.202Z,78.60
2018-12-31T12:56:51.663Z,79.12
2018-12-31T12:59:20.129Z,78.83
2018-12-31T13:01:48.577Z,78.83
2018-12-31T13:04:17.323Z,79.34
2018-12-31T13:06:47.313Z,79.78
2018-12-31T13:09:15.777Z,80.01
2018-12-31T13:11:44.214Z,80.36
2018-12-31T13:14:12.691Z,80.04
2018-12-31T13:16:41.416Z,80.60
2018-12-31T13:19:09.875Z,80.11
2018-12-31T13:21:38.312Z,81.02
2018-12-31T13:24:06.786Z,81.09
2018-12-31T13:26:35.231Z,81.44
2018-12-31T13:29:05.417Z,81.15
2018-12-31T13:31:33.887Z,81.15
2018-12-31T13:34:02.327Z,81.25
2018-12-31T13:36:30.786Z,81.25
2018-12-31T13:38:59.217Z,80.97
2018-12-31T13:41:28.046Z,80.97
2018-12-31T13:43:56.495Z,81.38
2018-12-31T13:46:42.836Z,81.98
2018-12-31T13:49:23.343Z,81.53
2018-12-31T13:51:50.958Z,81.24
2018-12-31T13:54:19.436Z,81.29
2018-12-31T13:56:47.859Z,81.62
2018-12-31T13:59:16.328Z,81.62
2018-12-31T14:01:45.142Z,82.46
2018-12-31T14:04:13.603Z,82.46
2018-12-31T14:06:42.854Z,82.00
2018-12-31T14:09:11.303Z,82.00
2018-12-31T14:11:39.764Z,81.26
2018-12-31T14:14:08.920Z,81.04
2018-12-31T14:16:37.366Z,81.30
2018-12-31T14:19:05.835Z,80.43
2018-12-31T14:21:34.284Z,79.58
2018-12-31T14:24:02.777Z,79.58
2018-12-31T14:26:31.427Z,79.67
2018-12-31T14:28:59.877Z,80.69
2018-12-31T14:31:28.355Z,80.69
2018-12-31T14:33:56.794Z,81.06
2018-12-31T14:36:25.256Z,81.25
2018-12-31T14:38:53.699Z,81.44
2018-12-31T14:41:22.163Z,81.80
2018-12-31T14:43:50.619Z,81.63
2018-12-31T14:46:19.071Z,81.95
2018-12-31T14:48:47.534Z,82.05
2018-12-31T14:51:16.000Z,82.24
2018-12-31T14:53:44.445Z,82.68
2018-12-31T14:56:12.989Z,82.83
2018-12-31T14:58:41.439Z,82.74
2018-12-31T15:01:09.904Z,83.64
2018-12-31T15:03:38.352Z,83.36
2018-12-31T15:06:07.137Z,84.16
2018-12-31T15:08:35.580Z,84.13
2018-12-31T15:11:04.123Z,84.91
2018-12-31T15:13:32.567Z,87.57
2018-12-31T15:16:01.030Z,87.57
2018-12-31T15:18:29.763Z,88.35
2018-12-31T15:20:58.237Z,89.10
2018-12-31T15:23:26.675Z,89.23
2018-12-31T15:25:55.142Z,90.15
2018-12-31T15:28:23.615Z,90.45
2018-12-31T15:30:52.384Z,90.32
2018-12-31T15:33:20.842Z,91.25
2018-12-31T15:35:49.296Z,91.87
2018-12-31T15:38:17.749Z,92.19
2018-12-31T15:40:46.222Z,92.92
2018-12-31T15:43:14.671Z,93.13
2018-12-31T15:45:43.126Z,92.87
2018-12-31T15:48:11.609Z,92.46
2018-12-31T15:50:40.063Z,92.46
2018-12-31T15:53:08.538Z,92.86
2018-12-31T15:55:36.972Z,92.96
2018-12-31T15:58:05.438Z,92.20
2018-12-31T16:00:33.903Z,92.66
2018-12-31T16:03:02.381Z,92.45
2018-12-31T16:05:30.859Z,92.61
2018-12-31T16:07:59.324Z,93.17
2018-12-31T16:10:28.042Z,93.21
2018-12-31T16:12:56.502Z,93.30
2018-12-31T16:15:24.959Z,93.34
2018-12-31T16:17:53.446Z,92.57
2018-12-31T16:20:21.903Z,92.36
2018-12-31T16:22:50.384Z,92.11
2018-12-31T16:25:18.835Z,92.66
2018-12-31T16:27:47.306Z,92.67
2018-12-31T16:30:15.764Z,93.40
2018-12-31T16:32:44.223Z,93.54
2018-12-31T16:35:12.670Z,93.22
2018-12-31T16:37:41.127Z,93.08
2018-12-31T16:40:09.565Z,92.92
2018-12-31T16:42:38.036Z,93.04
2018-12-31T16:45:07.116Z,93.02
2018-12-31T16:47:35.621Z,93.34
2018-12-31T16:50:04.872Z,93.67
2018-12-31T16:52:33.362Z,93.78
2018-12-31T16:55:01.804Z,94.00
2018-12-31T16:57:30.328Z,93.57
2018-12-31T16:59:58.772Z,93.69
2018-12-31T17:02:27.623Z,93.56
2018-12-31T17:04:56.084Z,93.50
2018-12-31T17:07:28.466Z,93.46
2018-12-31T17:09:54.706Z,92.94
2018-12-31T17:12:23.178Z,93.32
2018-12-31T17:14:51.639Z,93.72
2018-12-31T17:17:20.162Z,93.97
2018-12-31T17:19:48.629Z,93.27
2018-12-31T17:22:17.072Z,92.94
2018-12-31T17:24:45.534Z,93.43
2018-12-31T17:27:14.012Z,93.35
2018-12-31T17:29:42.474Z,93.25
2018-12-31T17:32:10.910Z,93.59
2018-12-31T17:34:39.383Z,94.34
2018-12-31T17:37:07.816Z,94.46
2018-12-31T17:39:36.286Z,94.28
2018-12-31T17:42:09.690Z,94.91
2018-12-31T17:44:35.219Z,95.10
2018-12-31T17:47:03.793Z,95.75
2018-12-31T17:49:32.222Z,95.35
2018-12-31T17:52:00.666Z,95.72
2018-12-31T17:54:29.613Z,96.17
2018-12-31T17:56:58.087Z,96.13
2018-12-31T17:59:26.558Z,96.08
2018-12-31T18:01:55.077Z,95.93
2018-12-31T18:04:23.537Z,96.04
2018-12-31T18:06:51.993Z,95.88
2018-12-31T18:09:20.477Z,95.36
2018-12-31T18:11:48.943Z,95.29
2018-12-31T18:14:17.416Z,95.60
2018-12-31T18:16:45.876Z,95.84
2018-12-31T18:19:14.337Z,96.22
2018-12-31T18:21:42.791Z,96.28
2018-12-31T18:24:14.159Z,96.34
2018-12-31T18:26:42.725Z,96.37
2018-12-31T18:29:18.536Z,96.78
2018-12-31T18:31:47.390Z,96.68
2018-12-31T18:34:22.187Z,96.91
2018-12-31T18:36:50.712Z,96.55
2018-12-31T18:39:19.176Z,96.39
2018-12-31T18:41:47.627Z,96.50
2018-12-31T18:44:16.281Z,96.41
2018-12-31T18:46:44.728Z,96.54
2018-12-31T18:49:13.211Z,96.71
2018-12-31T18:51:41.676Z,96.59
2018-12-31T18:54:10.168Z,96.74
2018-12-31T18:56:40.328Z,96.64
2018-12-31T18:59:08.778Z,96.70
2018-12-31T19:01:37.920Z,96.58
2018-12-31T19:04:06.374Z,96.78
2018-12-31T19:06:35.677Z,96.97
2018-12-31T19:09:06.023Z,97.09
2018-12-31T19:11:34.497Z,97.81
2018-12-31T19:14:03.988Z,97.67
2018-12-31T19:16:32.607Z,97.99
2018-12-31T19:19:01.057Z,98.30
2018-12-31T19:21:29.535Z,98.25
2018-12-31T19:23:57.990Z,98.70
2018-12-31T19:26:26.465Z,98.51
2018-12-31T19:28:54.900Z,98.53
2018-12-31T19:31:23.399Z,98.23
2018-12-31T19:33:51.840Z,98.10
2018-12-31T19:36:20.578Z,98.10
2018-12-31T19:38:49.037Z,97.92
2018-12-31T19:41:28.073Z,98.20
2018-12-31T19:43:56.491Z,98.15
2018-12-31T19:46:24.951Z,98.08
2018-12-31T19:48:53.405Z,98.08
2018-12-31T19:51:21.858Z,97.90
2018-12-31T19:53:50.322Z,98.30
2018-12-31T19:56:18.829Z,97.78
2018-12-31T19:58:47.324Z,97.99
2018-12-31T20:01:15.820Z,98.34
2018-12-31T20:03:44.278Z,98.32
2018-12-31T20:06:12.761Z,98.03
2018-12-31T20:08:41.220Z,98.05
2018-12-31T20:11:10.188Z,98.60
2018-12-31T20:13:38.812Z,98.47
2018-12-31T20:16:07.306Z,98.66
2018-12-31T20:18:35.744Z,99.09
2018-12-31T20:21:04.224Z,99.19
2018-12-31T20:23:32.685Z,99.44
2018-12-31T20:26:01.114Z,99.41
2018-12-31T20:28:29.592Z,99.53
2018-12-31T20:30:58.041Z,99.48
2018-12-31T20:33:26.622Z,99.65
2018-12-31T20:35:55.056Z,99.66
2018-12-31T20:38:23.509Z,99.69
2018-12-31T20:40:51.967Z,99.73
2018-12-31T20:43:20.423Z,99.94
2018-12-31T20:45:48.901Z,99.97
2018-12-31T20:48:17.438Z,99.77
2018-12-31T20:50:45.885Z,99.84
2018-12-31T20:53:14.351Z,99.87
2018-12-31T20:55:43.180Z,99.77
2018-12-31T20:58:11.655Z,99.76
2018-12-31T21:00:40.104Z,99.74
2018-12-31T21:03:08.602Z,99.71
2018-12-31T21:05:37.050Z,99.88
2018-12-31T21:08:05.517Z,99.85
2018-12-31T21:10:34.841Z,100.00
2018-12-31T21:13:03.417Z,100.00
2018-12-31T21:15:31.883Z,100.00
2018-12-31T21:18:00.342Z,99.94
2018-12-31T21:20:28.802Z,99.91
2018-12-31T21:22:57.675Z,100.00
2018-12-31T21:25:26.130Z,99.99
2018-12-31T21:27:54.571Z,99.99
2018-12-31T21:30:23.037Z,100.00
2018-12-31T21:32:51.518Z,100.00
2018-12-31T21:35:19.987Z,100.00
2018-12-31T21:37:48.457Z,100.00
2018-12-31T21:40:16.902Z,100.00
2018-12-31T21:42:45.403Z,100.00
2018-12-31T21:45:13.844Z,100.00
2018-12-31T21:47:42.394Z,100.00
2018-12-31T21:50:11.250Z,100.00
2018-12-31T21:52:39.700Z,100.00
2018-12-31T21:55:08.243Z,100.00
2018-12-31T21:57:36.696Z,99.80
2018-12-31T22:00:07.852Z,99.85
2018-12-31T22:02:36.677Z,99.98
2018-12-31T22:05:05.513Z,99.99
2018-12-31T22:07:33.970Z,99.61
2018-12-31T22:10:02.436Z,99.14
2018-12-31T22:12:30.883Z,99.03
2018-12-31T22:14:59.351Z,99.07
2018-12-31T22:17:27.791Z,98.88
2018-12-31T22:19:56.263Z,98.87
2018-12-31T22:22:24.703Z,98.76
2018-12-31T22:24:55.481Z,98.44
2018-12-31T22:27:23.925Z,98.19
2018-12-31T22:29:52.723Z,97.82
2018-12-31T22:32:21.170Z,97.97
2018-12-31T22:34:49.633Z,97.97
2018-12-31T22:37:18.158Z,97.58
2018-12-31T22:39:46.642Z,97.58
2018-12-31T22:42:15.483Z,98.04
2018-12-31T22:44:43.961Z,98.04
2018-12-31T22:47:12.422Z,97.70
2018-12-31T22:49:40.877Z,97.41
2018-12-31T22:52:09.331Z,97.56
2018-12-31T22:54:37.800Z,96.74
2018-12-31T22:57:06.254Z,96.68
2018-12-31T22:59:34.762Z,96.68
2018-12-31T23:02:03.260Z,97.07
2018-12-31T23:04:31.741Z,96.65
2018-12-31T23:07:00.325Z,96.65
2018-12-31T23:09:28.813Z,96.33
2018-12-31T23:11:57.322Z,96.12
2018-12-31T23:14:25.876Z,95.61
2018-12-31T23:16:55.587Z,95.61
2018-12-31T23:19:24.048Z,94.98
2018-12-31T23:21:52.696Z,94.98
2018-12-31T23:24:21.184Z,95.03
2018-12-31T23:26:49.668Z,95.03
2018-12-31T23:29:18.126Z,95.03
2018-12-31T23:31:46.595Z,94.57
2018-12-31T23:34:15.048Z,94.57
2018-12-31T23:36:43.528Z,94.33
2018-12-31T23:39:11.977Z,94.02
2018-12-31T23:41:40.472Z,93.75
2018-12-31T23:44:08.919Z,93.51
2018-12-31T23:46:37.413Z,93.51
2018-12-31T23:49:05.882Z,93.21
2018-12-31T23:51:34.377Z,92.91
2018-12-31T23:54:02.833Z,92.49
2018-12-31T23:56:31.306Z,92.15
2018-12-31T23:58:59.751Z,92.04
